sensor_id;sensor_type;location;lat;lon;timestamp;pressure;altitude;pressure_sealevel;temperature;humidity
58239;BME280;44037;55.638;37.356;2023-08-08T00:02:08;98340.34;;;22.48;76.65
58239;BME280;44037;55.638;37.356;2023-08-08T00:04:35;98330.75;;;22.47;76.58
58239;BME280;44037;55.638;37.356;2023-08-08T00:07:02;98329.81;;;22.48;76.84
58239;BME280;44037;55.638;37.356;2023-08-08T00:09:29;98329.69;;;22.50;76.80
58239;BME280;44037;55.638;37.356;2023-08-08T00:11:56;98326.13;;;22.51;76.74
58239;BME280;44037;55.638;37.356;2023-08-08T00:14:24;98315.66;;;22.49;76.66
58239;BME280;44037;55.638;37.356;2023-08-08T00:16:52;98306.06;;;22.48;76.58
58239;BME280;44037;55.638;37.356;2023-08-08T00:19:19;98310.56;;;22.46;76.77
58239;BME280;44037;55.638;37.356;2023-08-08T00:21:46;98307.94;;;22.46;76.82
58239;BME280;44037;55.638;37.356;2023-08-08T00:24:13;98297.31;;;22.48;76.66
58239;BME280;44037;55.638;37.356;2023-08-08T00:26:40;98291.16;;;22.47;76.43
58239;BME280;44037;55.638;37.356;2023-08-08T00:29:07;98282.41;;;22.47;76.87
58239;BME280;44037;55.638;37.356;2023-08-08T00:31:34;98302.84;;;22.43;76.68
58239;BME280;44037;55.638;37.356;2023-08-08T00:34:03;98287.19;;;22.40;76.78
58239;BME280;44037;55.638;37.356;2023-08-08T00:36:30;98292.63;;;22.37;76.40
58239;BME280;44037;55.638;37.356;2023-08-08T00:38:57;98290.94;;;22.36;76.63
58239;BME280;44037;55.638;37.356;2023-08-08T00:41:25;98286.53;;;22.36;76.10
58239;BME280;44037;55.638;37.356;2023-08-08T00:43:52;98294.34;;;22.38;76.22
58239;BME280;44037;55.638;37.356;2023-08-08T00:46:21;98274.94;;;22.39;76.14
58239;BME280;44037;55.638;37.356;2023-08-08T00:48:50;98267.84;;;22.39;75.65
58239;BME280;44037;55.638;37.356;2023-08-08T00:51:18;98277.56;;;22.39;75.69
58239;BME280;44037;55.638;37.356;2023-08-08T00:53:46;98263.50;;;22.38;75.44
58239;BME280;44037;55.638;37.356;2023-08-08T00:56:13;98280.22;;;22.39;75.51
58239;BME280;44037;55.638;37.356;2023-08-08T00:58:42;98286.31;;;22.39;75.59
58239;BME280;44037;55.638;37.356;2023-08-08T01:01:11;98303.00;;;22.40;75.55
58239;BME280;44037;55.638;37.356;2023-08-08T01:03:38;98303.84;;;22.40;75.75
58239;BME280;44037;55.638;37.356;2023-08-08T01:06:10;98301.22;;;22.40;75.46
58239;BME280;44037;55.638;37.356;2023-08-08T01:08:45;98283.78;;;22.38;75.51
58239;BME280;44037;55.638;37.356;2023-08-08T01:11:15;98279.63;;;22.34;75.30
58239;BME280;44037;55.638;37.356;2023-08-08T01:13:44;98277.16;;;22.31;75.34
58239;BME280;44037;55.638;37.356;2023-08-08T01:16:13;98280.69;;;22.31;75.32
58239;BME280;44037;55.638;37.356;2023-08-08T01:18:40;98286.06;;;22.30;75.65
58239;BME280;44037;55.638;37.356;2023-08-08T01:21:09;98281.63;;;22.30;75.68
58239;BME280;44037;55.638;37.356;2023-08-08T01:23:45;98268.53;;;22.29;75.30
58239;BME280;44037;55.638;37.356;2023-08-08T01:26:16;98255.41;;;22.27;75.70
58239;BME280;44037;55.638;37.356;2023-08-08T01:28:43;98263.44;;;22.25;75.97
58239;BME280;44037;55.638;37.356;2023-08-08T01:31:10;98267.94;;;22.23;75.96
58239;BME280;44037;55.638;37.356;2023-08-08T01:33:37;98272.47;;;22.21;75.62
58239;BME280;44037;55.638;37.356;2023-08-08T01:36:10;98264.72;;;22.18;75.99
58239;BME280;44037;55.638;37.356;2023-08-08T01:38:42;98269.34;;;22.15;75.89
58239;BME280;44037;55.638;37.356;2023-08-08T01:41:10;98265.13;;;22.12;76.02
58239;BME280;44037;55.638;37.356;2023-08-08T01:43:39;98267.75;;;22.12;76.15
58239;BME280;44037;55.638;37.356;2023-08-08T01:46:07;98267.75;;;22.12;76.28
58239;BME280;44037;55.638;37.356;2023-08-08T01:48:35;98272.25;;;22.10;76.62
58239;BME280;44037;55.638;37.356;2023-08-08T01:51:02;98273.38;;;22.06;76.85
58239;BME280;44037;55.638;37.356;2023-08-08T01:53:29;98280.56;;;22.04;77.03
58239;BME280;44037;55.638;37.356;2023-08-08T01:55:56;98273.59;;;22.03;77.03
58239;BME280;44037;55.638;37.356;2023-08-08T01:58:23;98268.31;;;22.03;76.94
58239;BME280;44037;55.638;37.356;2023-08-08T02:00:52;98278.09;;;22.01;76.90
58239;BME280;44037;55.638;37.356;2023-08-08T02:03:19;98278.16;;;21.99;77.15
58239;BME280;44037;55.638;37.356;2023-08-08T02:05:46;98274.81;;;21.97;77.64
58239;BME280;44037;55.638;37.356;2023-08-08T02:08:13;98283.00;;;21.92;77.99
58239;BME280;44037;55.638;37.356;2023-08-08T02:10:40;98277.97;;;21.88;78.40
58239;BME280;44037;55.638;37.356;2023-08-08T02:13:07;98279.09;;;21.84;78.60
58239;BME280;44037;55.638;37.356;2023-08-08T02:15:34;98270.50;;;21.80;78.68
58239;BME280;44037;55.638;37.356;2023-08-08T02:18:03;98285.59;;;21.78;78.94
58239;BME280;44037;55.638;37.356;2023-08-08T02:20:50;98274.28;;;21.76;78.96
58239;BME280;44037;55.638;37.356;2023-08-08T02:23:17;98276.16;;;21.74;79.32
58239;BME280;44037;55.638;37.356;2023-08-08T02:25:44;98279.91;;;21.70;79.25
58239;BME280;44037;55.638;37.356;2023-08-08T02:28:11;98279.22;;;21.66;79.73
58239;BME280;44037;55.638;37.356;2023-08-08T02:30:38;98283.72;;;21.64;79.94
58239;BME280;44037;55.638;37.356;2023-08-08T02:33:07;98287.25;;;21.65;79.77
58239;BME280;44037;55.638;37.356;2023-08-08T02:35:35;98282.72;;;21.67;80.15
58239;BME280;44037;55.638;37.356;2023-08-08T02:38:03;98295.81;;;21.68;80.00
58239;BME280;44037;55.638;37.356;2023-08-08T02:40:30;98294.94;;;21.68;80.34
58239;BME280;44037;55.638;37.356;2023-08-08T02:42:58;98287.31;;;21.63;80.42
58239;BME280;44037;55.638;37.356;2023-08-08T02:45:25;98288.41;;;21.59;80.86
58239;BME280;44037;55.638;37.356;2023-08-08T02:47:52;98284.16;;;21.56;80.85
58239;BME280;44037;55.638;37.356;2023-08-08T02:50:21;98296.38;;;21.57;81.02
58239;BME280;44037;55.638;37.356;2023-08-08T02:52:48;98290.19;;;21.58;80.92
58239;BME280;44037;55.638;37.356;2023-08-08T02:55:15;98283.56;;;21.67;80.67
58239;BME280;44037;55.638;37.356;2023-08-08T02:57:42;98287.63;;;21.73;80.39
58239;BME280;44037;55.638;37.356;2023-08-08T03:00:10;98290.00;;;21.77;80.30
58239;BME280;44037;55.638;37.356;2023-08-08T03:02:37;98297.25;;;21.74;80.34
58239;BME280;44037;55.638;37.356;2023-08-08T03:05:05;98295.72;;;21.70;80.52
58239;BME280;44037;55.638;37.356;2023-08-08T03:07:34;98304.38;;;21.72;80.40
58239;BME280;44037;55.638;37.356;2023-08-08T03:10:01;98288.13;;;21.79;80.31
58239;BME280;44037;55.638;37.356;2023-08-08T03:12:29;98297.34;;;21.87;79.70
58239;BME280;44037;55.638;37.356;2023-08-08T03:14:56;98290.97;;;21.91;79.43
58239;BME280;44037;55.638;37.356;2023-08-08T03:17:23;98297.84;;;21.93;79.27
58239;BME280;44037;55.638;37.356;2023-08-08T03:19:50;98298.59;;;21.96;79.14
58239;BME280;44037;55.638;37.356;2023-08-08T03:22:17;98302.75;;;22.00;79.05
58239;BME280;44037;55.638;37.356;2023-08-08T03:24:46;98295.81;;;22.13;78.65
58239;BME280;44037;55.638;37.356;2023-08-08T03:27:13;98299.31;;;22.28;78.20
58239;BME280;44037;55.638;37.356;2023-08-08T03:29:40;98301.31;;;22.39;77.41
58239;BME280;44037;55.638;37.356;2023-08-08T03:32:07;98303.41;;;22.48;76.91
58239;BME280;44037;55.638;37.356;2023-08-08T03:34:34;98307.00;;;22.47;76.34
58239;BME280;44037;55.638;37.356;2023-08-08T03:37:01;98301.59;;;22.34;76.59
58239;BME280;44037;55.638;37.356;2023-08-08T03:39:28;98307.63;;;22.22;77.56
58239;BME280;44037;55.638;37.356;2023-08-08T03:41:56;98298.47;;;22.13;78.15
58239;BME280;44037;55.638;37.356;2023-08-08T03:44:23;98302.69;;;22.16;78.21
58239;BME280;44037;55.638;37.356;2023-08-08T03:46:50;98309.38;;;22.21;78.39
58239;BME280;44037;55.638;37.356;2023-08-08T03:49:18;98311.75;;;22.26;78.75
58239;BME280;44037;55.638;37.356;2023-08-08T03:51:45;98309.78;;;22.30;78.84
58239;BME280;44037;55.638;37.356;2023-08-08T03:54:14;98308.16;;;22.27;79.21
58239;BME280;44037;55.638;37.356;2023-08-08T03:56:41;98308.44;;;22.22;79.10
58239;BME280;44037;55.638;37.356;2023-08-08T03:59:09;98316.75;;;22.16;79.64
58239;BME280;44037;55.638;37.356;2023-08-08T04:01:36;98320.13;;;22.18;79.86
58239;BME280;44037;55.638;37.356;2023-08-08T04:04:04;98314.66;;;22.21;80.03
58239;BME280;44037;55.638;37.356;2023-08-08T04:06:31;98317.03;;;22.26;79.61
58239;BME280;44037;55.638;37.356;2023-08-08T04:08:58;98321.28;;;22.29;78.70
58239;BME280;44037;55.638;37.356;2023-08-08T04:11:26;98320.69;;;22.23;78.91
58239;BME280;44037;55.638;37.356;2023-08-08T04:13:53;98321.25;;;22.14;79.45
58239;BME280;44037;55.638;37.356;2023-08-08T04:16:21;98320.84;;;22.06;79.97
58239;BME280;44037;55.638;37.356;2023-08-08T04:18:48;98335.00;;;22.05;80.03
58239;BME280;44037;55.638;37.356;2023-08-08T04:21:15;98323.25;;;22.11;79.92
58239;BME280;44037;55.638;37.356;2023-08-08T04:23:42;98333.72;;;22.27;79.52
58239;BME280;44037;55.638;37.356;2023-08-08T04:26:10;98337.31;;;22.40;78.79
58239;BME280;44037;55.638;37.356;2023-08-08T04:28:37;98334.50;;;22.43;78.78
58239;BME280;44037;55.638;37.356;2023-08-08T04:31:04;98333.78;;;22.41;78.75
58239;BME280;44037;55.638;37.356;2023-08-08T04:33:32;98326.69;;;22.42;78.94
58239;BME280;44037;55.638;37.356;2023-08-08T04:35:59;98329.69;;;22.50;78.95
58239;BME280;44037;55.638;37.356;2023-08-08T04:38:26;98328.88;;;22.64;78.84
58239;BME280;44037;55.638;37.356;2023-08-08T04:40:53;98332.75;;;22.73;77.73
58239;BME280;44037;55.638;37.356;2023-08-08T04:43:20;98330.34;;;22.82;77.41
58239;BME280;44037;55.638;37.356;2023-08-08T04:45:47;98328.59;;;22.83;76.71
58239;BME280;44037;55.638;37.356;2023-08-08T04:48:14;98335.38;;;22.73;77.16
58239;BME280;44037;55.638;37.356;2023-08-08T04:50:43;98335.84;;;22.65;77.01
58239;BME280;44037;55.638;37.356;2023-08-08T04:53:10;98334.03;;;22.65;77.42
58239;BME280;44037;55.638;37.356;2023-08-08T04:55:37;98326.69;;;22.70;77.10
58239;BME280;44037;55.638;37.356;2023-08-08T04:58:05;98333.28;;;22.78;77.26
58239;BME280;44037;55.638;37.356;2023-08-08T05:00:32;98336.03;;;22.91;77.00
58239;BME280;44037;55.638;37.356;2023-08-08T05:02:59;98333.16;;;23.08;76.58
58239;BME280;44037;55.638;37.356;2023-08-08T05:05:27;98339.09;;;23.26;75.29
58239;BME280;44037;55.638;37.356;2023-08-08T05:07:55;98339.81;;;23.43;74.61
58239;BME280;44037;55.638;37.356;2023-08-08T05:10:22;98349.19;;;23.61;73.45
58239;BME280;44037;55.638;37.356;2023-08-08T05:12:49;98332.09;;;23.67;72.72
58239;BME280;44037;55.638;37.356;2023-08-08T05:15:16;98332.72;;;23.71;72.63
58239;BME280;44037;55.638;37.356;2023-08-08T05:17:43;98333.56;;;23.71;73.00
58239;BME280;44037;55.638;37.356;2023-08-08T05:20:11;98336.34;;;23.83;73.26
58239;BME280;44037;55.638;37.356;2023-08-08T05:22:38;98338.94;;;23.97;72.49
58239;BME280;44037;55.638;37.356;2023-08-08T05:25:07;98356.88;;;24.19;71.72
58239;BME280;44037;55.638;37.356;2023-08-08T05:27:34;98346.63;;;24.41;70.01
58239;BME280;44037;55.638;37.356;2023-08-08T05:30:02;98337.09;;;24.51;69.65
58239;BME280;44037;55.638;37.356;2023-08-08T05:32:30;98337.19;;;24.62;69.02
58239;BME280;44037;55.638;37.356;2023-08-08T05:34:58;98331.91;;;24.62;69.30
58239;BME280;44037;55.638;37.356;2023-08-08T05:37:26;98335.72;;;24.58;69.83
58239;BME280;44037;55.638;37.356;2023-08-08T05:39:53;98325.66;;;24.63;69.56
58239;BME280;44037;55.638;37.356;2023-08-08T05:42:22;98337.94;;;24.77;69.61
58239;BME280;44037;55.638;37.356;2023-08-08T05:44:49;98330.28;;;25.11;69.21
58239;BME280;44037;55.638;37.356;2023-08-08T05:47:16;98328.66;;;25.59;67.68
58239;BME280;44037;55.638;37.356;2023-08-08T05:49:43;98324.63;;;26.13;65.19
58239;BME280;44037;55.638;37.356;2023-08-08T05:52:10;98329.25;;;26.34;62.48
58239;BME280;44037;55.638;37.356;2023-08-08T05:54:37;98333.97;;;26.30;62.62
58239;BME280;44037;55.638;37.356;2023-08-08T05:57:04;98347.63;;;26.01;63.42
58239;BME280;44037;55.638;37.356;2023-08-08T05:59:33;98334.97;;;26.05;63.39
58239;BME280;44037;55.638;37.356;2023-08-08T06:02:00;98342.56;;;26.10;63.03
58239;BME280;44037;55.638;37.356;2023-08-08T06:04:27;98329.22;;;26.11;63.79
58239;BME280;44037;55.638;37.356;2023-08-08T06:06:54;98339.00;;;26.11;63.41
58239;BME280;44037;55.638;37.356;2023-08-08T06:09:21;98340.09;;;26.19;64.14
58239;BME280;44037;55.638;37.356;2023-08-08T06:11:48;98345.22;;;26.57;63.60
58239;BME280;44037;55.638;37.356;2023-08-08T06:14:15;98346.59;;;26.96;62.56
58239;BME280;44037;55.638;37.356;2023-08-08T06:16:44;98338.81;;;27.27;60.99
58239;BME280;44037;55.638;37.356;2023-08-08T06:19:12;98346.88;;;27.49;59.20
58239;BME280;44037;55.638;37.356;2023-08-08T06:21:40;98341.34;;;27.29;59.14
58239;BME280;44037;55.638;37.356;2023-08-08T06:24:07;98338.47;;;26.98;59.84
58239;BME280;44037;55.638;37.356;2023-08-08T06:26:34;98347.28;;;26.76;61.21
58239;BME280;44037;55.638;37.356;2023-08-08T06:29:02;98342.44;;;26.58;62.51
58239;BME280;44037;55.638;37.356;2023-08-08T06:31:29;98342.06;;;26.51;62.28
58239;BME280;44037;55.638;37.356;2023-08-08T06:33:57;98338.22;;;26.56;62.65
58239;BME280;44037;55.638;37.356;2023-08-08T06:36:25;98343.34;;;26.81;63.19
58239;BME280;44037;55.638;37.356;2023-08-08T06:38:52;98346.19;;;27.12;62.06
58239;BME280;44037;55.638;37.356;2023-08-08T06:41:18;98344.50;;;27.34;61.12
58239;BME280;44037;55.638;37.356;2023-08-08T06:43:45;98347.19;;;27.67;59.58
58239;BME280;44037;55.638;37.356;2023-08-08T06:46:12;98350.91;;;27.75;58.34
58239;BME280;44037;55.638;37.356;2023-08-08T06:48:42;98348.13;;;27.44;59.64
58239;BME280;44037;55.638;37.356;2023-08-08T06:51:11;98357.06;;;27.09;60.75
58239;BME280;44037;55.638;37.356;2023-08-08T06:53:38;98353.97;;;26.81;62.45
58239;BME280;44037;55.638;37.356;2023-08-08T06:56:05;98348.25;;;26.63;62.86
58239;BME280;44037;55.638;37.356;2023-08-08T06:58:32;98352.84;;;26.61;63.03
58239;BME280;44037;55.638;37.356;2023-08-08T07:00:59;98358.59;;;26.55;63.06
58239;BME280;44037;55.638;37.356;2023-08-08T07:03:26;98367.31;;;26.68;63.83
58239;BME280;44037;55.638;37.356;2023-08-08T07:05:53;98364.34;;;27.07;62.87
58239;BME280;44037;55.638;37.356;2023-08-08T07:08:22;98369.25;;;27.46;61.38
58239;BME280;44037;55.638;37.356;2023-08-08T07:10:49;98372.44;;;27.72;59.53
58239;BME280;44037;55.638;37.356;2023-08-08T07:13:16;98379.22;;;27.65;59.65
58239;BME280;44037;55.638;37.356;2023-08-08T07:15:43;98370.31;;;27.43;60.50
58239;BME280;44037;55.638;37.356;2023-08-08T07:18:10;98380.25;;;27.30;60.45
58239;BME280;44037;55.638;37.356;2023-08-08T07:20:37;98371.94;;;27.23;61.08
58239;BME280;44037;55.638;37.356;2023-08-08T07:23:04;98374.22;;;27.17;61.84
58239;BME280;44037;55.638;37.356;2023-08-08T07:25:33;98371.34;;;27.08;62.18
58239;BME280;44037;55.638;37.356;2023-08-08T07:28:00;98371.09;;;27.00;62.84
58239;BME280;44037;55.638;37.356;2023-08-08T07:30:28;98365.75;;;27.34;62.52
58239;BME280;44037;55.638;37.356;2023-08-08T07:32:55;98369.47;;;27.87;61.28
58239;BME280;44037;55.638;37.356;2023-08-08T07:35:22;98371.25;;;28.30;60.06
58239;BME280;44037;55.638;37.356;2023-08-08T07:37:49;98376.28;;;28.55;57.89
58239;BME280;44037;55.638;37.356;2023-08-08T07:40:16;98376.72;;;28.29;58.49
58239;BME280;44037;55.638;37.356;2023-08-08T07:42:50;98385.06;;;27.92;59.60
58239;BME280;44037;55.638;37.356;2023-08-08T07:45:17;98387.13;;;27.55;60.74
58239;BME280;44037;55.638;37.356;2023-08-08T07:47:44;98391.16;;;27.16;62.03
58239;BME280;44037;55.638;37.356;2023-08-08T07:50:11;98390.28;;;26.92;62.91
58239;BME280;44037;55.638;37.356;2023-08-08T07:52:40;98391.38;;;26.90;63.38
58239;BME280;44037;55.638;37.356;2023-08-08T07:55:07;98390.66;;;26.99;62.92
58239;BME280;44037;55.638;37.356;2023-08-08T07:57:35;98391.63;;;27.21;62.94
58239;BME280;44037;55.638;37.356;2023-08-08T08:00:04;98393.75;;;27.61;62.24
58239;BME280;44037;55.638;37.356;2023-08-08T08:02:36;98391.00;;;27.95;60.94
58239;BME280;44037;55.638;37.356;2023-08-08T08:05:04;98392.00;;;28.36;59.46
58239;BME280;44037;55.638;37.356;2023-08-08T08:07:33;98393.91;;;28.46;57.33
58239;BME280;44037;55.638;37.356;2023-08-08T08:10:01;98397.97;;;28.08;58.74
58239;BME280;44037;55.638;37.356;2023-08-08T08:12:31;98397.81;;;27.77;60.71
58239;BME280;44037;55.638;37.356;2023-08-08T08:14:58;98401.38;;;27.66;61.05
58239;BME280;44037;55.638;37.356;2023-08-08T08:17:27;98403.03;;;27.67;60.73
58239;BME280;44037;55.638;37.356;2023-08-08T08:19:54;98400.16;;;27.58;61.44
58239;BME280;44037;55.638;37.356;2023-08-08T08:22:21;98404.50;;;27.71;62.15
58239;BME280;44037;55.638;37.356;2023-08-08T08:24:49;98398.31;;;28.14;60.79
58239;BME280;44037;55.638;37.356;2023-08-08T08:27:16;98392.41;;;28.53;59.65
58239;BME280;44037;55.638;37.356;2023-08-08T08:29:44;98395.84;;;28.65;58.66
58239;BME280;44037;55.638;37.356;2023-08-08T08:32:11;98399.69;;;28.51;58.26
58239;BME280;44037;55.638;37.356;2023-08-08T08:34:39;98410.47;;;28.28;59.73
58239;BME280;44037;55.638;37.356;2023-08-08T08:37:07;98416.09;;;28.14;61.10
58239;BME280;44037;55.638;37.356;2023-08-08T08:39:34;98404.50;;;28.03;59.79
58239;BME280;44037;55.638;37.356;2023-08-08T08:42:02;98410.69;;;27.93;60.64
58239;BME280;44037;55.638;37.356;2023-08-08T08:44:31;98419.97;;;27.77;61.09
58239;BME280;44037;55.638;37.356;2023-08-08T08:46:59;98421.53;;;27.80;61.51
58239;BME280;44037;55.638;37.356;2023-08-08T08:49:30;98427.41;;;28.27;60.85
58239;BME280;44037;55.638;37.356;2023-08-08T08:51:59;98418.19;;;28.74;57.95
58239;BME280;44037;55.638;37.356;2023-08-08T08:54:28;98408.56;;;28.61;57.82
58239;BME280;44037;55.638;37.356;2023-08-08T08:56:56;98410.94;;;28.33;58.51
58239;BME280;44037;55.638;37.356;2023-08-08T08:59:24;98417.78;;;28.15;59.05
58239;BME280;44037;55.638;37.356;2023-08-08T09:01:53;98413.00;;;27.97;59.87
58239;BME280;44037;55.638;37.356;2023-08-08T09:04:20;98410.84;;;27.91;60.32
58239;BME280;44037;55.638;37.356;2023-08-08T09:06:48;98407.66;;;28.09;60.21
58239;BME280;44037;55.638;37.356;2023-08-08T09:09:18;98402.88;;;28.45;59.22
58239;BME280;44037;55.638;37.356;2023-08-08T09:11:49;98405.13;;;28.71;58.12
58239;BME280;44037;55.638;37.356;2023-08-08T09:14:17;98400.31;;;28.64;57.52
58239;BME280;44037;55.638;37.356;2023-08-08T09:16:45;98407.41;;;28.54;59.57
58239;BME280;44037;55.638;37.356;2023-08-08T09:19:13;98407.00;;;28.59;59.15
58239;BME280;44037;55.638;37.356;2023-08-08T09:21:40;98411.06;;;28.53;58.64
58239;BME280;44037;55.638;37.356;2023-08-08T09:24:07;98413.28;;;28.48;58.97
58239;BME280;44037;55.638;37.356;2023-08-08T09:26:36;98413.38;;;28.67;58.78
58239;BME280;44037;55.638;37.356;2023-08-08T09:29:03;98419.81;;;29.17;58.65
58239;BME280;44037;55.638;37.356;2023-08-08T09:31:30;98416.91;;;29.81;56.62
58239;BME280;44037;55.638;37.356;2023-08-08T09:33:58;98408.50;;;30.25;53.55
58239;BME280;44037;55.638;37.356;2023-08-08T09:36:26;98419.63;;;30.10;53.36
58239;BME280;44037;55.638;37.356;2023-08-08T09:38:53;98416.34;;;29.77;54.47
58239;BME280;44037;55.638;37.356;2023-08-08T09:41:21;98416.84;;;29.51;56.15
58239;BME280;44037;55.638;37.356;2023-08-08T09:43:50;98421.25;;;29.31;56.19
58239;BME280;44037;55.638;37.356;2023-08-08T09:46:19;98420.47;;;29.09;57.75
58239;BME280;44037;55.638;37.356;2023-08-08T09:48:46;98413.06;;;29.13;55.85
58239;BME280;44037;55.638;37.356;2023-08-08T09:51:14;98422.50;;;29.48;56.29
58239;BME280;44037;55.638;37.356;2023-08-08T09:53:41;98413.13;;;29.83;55.29
58239;BME280;44037;55.638;37.356;2023-08-08T09:56:09;98424.19;;;29.59;55.40
58239;BME280;44037;55.638;37.356;2023-08-08T09:58:37;98422.22;;;29.20;56.01
58239;BME280;44037;55.638;37.356;2023-08-08T10:01:06;98418.31;;;28.93;58.41
58239;BME280;44037;55.638;37.356;2023-08-08T10:03:33;98425.13;;;28.86;59.48
58239;BME280;44037;55.638;37.356;2023-08-08T10:06:03;98426.81;;;28.87;58.23
58239;BME280;44037;55.638;37.356;2023-08-08T10:08:30;98417.69;;;28.80;58.34
58239;BME280;44037;55.638;37.356;2023-08-08T10:10:58;98424.03;;;28.67;58.40
58239;BME280;44037;55.638;37.356;2023-08-08T10:13:26;98428.97;;;28.51;59.56
58239;BME280;44037;55.638;37.356;2023-08-08T10:15:54;98421.06;;;28.40;60.26
58239;BME280;44037;55.638;37.356;2023-08-08T10:18:24;98420.53;;;28.25;60.62
58239;BME280;44037;55.638;37.356;2023-08-08T10:20:51;98434.28;;;27.97;61.58
58239;BME280;44037;55.638;37.356;2023-08-08T10:23:19;98436.94;;;27.65;63.65
58239;BME280;44037;55.638;37.356;2023-08-08T10:25:47;98434.16;;;27.43;62.45
58239;BME280;44037;55.638;37.356;2023-08-08T10:28:17;98446.00;;;27.28;63.85
58239;BME280;44037;55.638;37.356;2023-08-08T10:30:46;98444.44;;;27.14;65.74
58239;BME280;44037;55.638;37.356;2023-08-08T10:33:17;98453.69;;;26.97;66.99
58239;BME280;44037;55.638;37.356;2023-08-08T10:35:54;98459.81;;;26.75;68.00
58239;BME280;44037;55.638;37.356;2023-08-08T10:38:24;98449.16;;;26.63;68.72
58239;BME280;44037;55.638;37.356;2023-08-08T10:40:56;98457.94;;;26.52;69.88
58239;BME280;44037;55.638;37.356;2023-08-08T10:43:27;98463.84;;;26.45;70.25
58239;BME280;44037;55.638;37.356;2023-08-08T10:45:57;98458.72;;;26.30;70.83
58239;BME280;44037;55.638;37.356;2023-08-08T10:48:25;98457.53;;;26.34;70.12
58239;BME280;44037;55.638;37.356;2023-08-08T10:50:55;98460.59;;;26.52;70.39
58239;BME280;44037;55.638;37.356;2023-08-08T10:53:25;98466.81;;;26.76;69.58
58239;BME280;44037;55.638;37.356;2023-08-08T10:56:00;98464.69;;;26.92;69.48
58239;BME280;44037;55.638;37.356;2023-08-08T10:58:38;98472.19;;;26.87;70.39
58239;BME280;44037;55.638;37.356;2023-08-08T11:01:05;98472.00;;;26.77;70.61
58239;BME280;44037;55.638;37.356;2023-08-08T11:03:36;98468.81;;;26.61;69.85
58239;BME280;44037;55.638;37.356;2023-08-08T11:06:07;98475.06;;;26.48;70.84
58239;BME280;44037;55.638;37.356;2023-08-08T11:08:35;98472.75;;;26.44;71.26
58239;BME280;44037;55.638;37.356;2023-08-08T11:11:04;98470.63;;;26.49;70.67
58239;BME280;44037;55.638;37.356;2023-08-08T11:13:32;98459.22;;;26.71;69.39
58239;BME280;44037;55.638;37.356;2023-08-08T11:15:59;98470.03;;;27.15;68.13
58239;BME280;44037;55.638;37.356;2023-08-08T11:18:28;98466.88;;;27.67;67.01
58239;BME280;44037;55.638;37.356;2023-08-08T11:20:55;98475.91;;;28.10;64.21
58239;BME280;44037;55.638;37.356;2023-08-08T11:23:24;98475.66;;;28.34;63.67
58239;BME280;44037;55.638;37.356;2023-08-08T11:25:51;98474.25;;;28.51;63.51
58239;BME280;44037;55.638;37.356;2023-08-08T11:28:18;98463.81;;;28.59;62.68
58239;BME280;44037;55.638;37.356;2023-08-08T11:30:46;98462.06;;;28.70;62.24
58239;BME280;44037;55.638;37.356;2023-08-08T11:33:14;98465.31;;;28.73;61.38
58239;BME280;44037;55.638;37.356;2023-08-08T11:35:44;98467.16;;;28.61;61.57
58239;BME280;44037;55.638;37.356;2023-08-08T11:38:14;98477.31;;;28.46;62.08
58239;BME280;44037;55.638;37.356;2023-08-08T11:40:43;98472.19;;;28.33;62.81
58239;BME280;44037;55.638;37.356;2023-08-08T11:43:11;98477.88;;;28.29;62.85
58239;BME280;44037;55.638;37.356;2023-08-08T11:45:39;98483.13;;;28.19;63.39
58239;BME280;44037;55.638;37.356;2023-08-08T11:48:08;98484.00;;;27.97;63.74
58239;BME280;44037;55.638;37.356;2023-08-08T11:50:36;98484.78;;;27.76;64.37
58239;BME280;44037;55.638;37.356;2023-08-08T11:53:04;98480.69;;;27.61;64.74
58239;BME280;44037;55.638;37.356;2023-08-08T11:55:32;98473.94;;;27.45;65.88
58239;BME280;44037;55.638;37.356;2023-08-08T11:58:00;98475.97;;;27.30;66.43
58239;BME280;44037;55.638;37.356;2023-08-08T12:00:29;98479.09;;;27.35;66.21
58239;BME280;44037;55.638;37.356;2023-08-08T12:02:57;98481.16;;;27.54;65.92
58239;BME280;44037;55.638;37.356;2023-08-08T12:05:24;98482.19;;;27.86;65.57
58239;BME280;44037;55.638;37.356;2023-08-08T12:07:51;98479.72;;;28.17;64.11
58239;BME280;44037;55.638;37.356;2023-08-08T12:10:20;98479.72;;;28.17;64.07
58239;BME280;44037;55.638;37.356;2023-08-08T12:12:53;98478.13;;;28.26;62.73
58239;BME280;44037;55.638;37.356;2023-08-08T12:15:22;98477.22;;;28.15;62.69
58239;BME280;44037;55.638;37.356;2023-08-08T12:17:49;98473.88;;;27.90;62.93
58239;BME280;44037;55.638;37.356;2023-08-08T12:20:16;98474.00;;;27.78;63.48
58239;BME280;44037;55.638;37.356;2023-08-08T12:22:43;98478.97;;;27.71;64.91
58239;BME280;44037;55.638;37.356;2023-08-08T12:25:11;98486.59;;;27.64;64.39
58239;BME280;44037;55.638;37.356;2023-08-08T12:27:38;98477.88;;;27.62;65.63
58239;BME280;44037;55.638;37.356;2023-08-08T12:30:07;98483.69;;;27.67;65.01
58239;BME280;44037;55.638;37.356;2023-08-08T12:32:35;98483.09;;;27.64;60.30
58239;BME280;44037;55.638;37.356;2023-08-08T12:35:03;98478.75;;;27.63;64.11
58239;BME280;44037;55.638;37.356;2023-08-08T12:37:31;98478.50;;;27.66;63.30
58239;BME280;44037;55.638;37.356;2023-08-08T12:39:58;98473.06;;;27.67;63.84
58239;BME280;44037;55.638;37.356;2023-08-08T12:42:25;98477.41;;;27.68;64.52
58239;BME280;44037;55.638;37.356;2023-08-08T12:44:53;98478.63;;;27.53;64.33
58239;BME280;44037;55.638;37.356;2023-08-08T12:47:20;98472.81;;;27.36;65.32
58239;BME280;44037;55.638;37.356;2023-08-08T12:49:48;98478.25;;;27.23;65.74
58239;BME280;44037;55.638;37.356;2023-08-08T12:52:15;98486.09;;;27.13;65.26
58239;BME280;44037;55.638;37.356;2023-08-08T12:54:43;98474.50;;;27.03;64.87